Time;durP1;ratioP1;P1;durP2;ratioP2;P2;SDS_P1;SDS_P2;PMS_P1;PMS_P2;Temp;Humidity;BMP_temperature;BMP_pressure;BME280_temperature;BME280_humidity;BME280_pressure;Samples;Min_cycle;Max_cycle;Signal;HPM_P1;HPM_P2
2022/11/22 00:02:23;;;;;;;5.40;1.95;;;5.60;99.90;;;4.80;100.00;95305.19;5043375;28;21422;-41
2022/11/22 00:04:48;;;;;;;4.55;1.85;;;5.60;99.90;;;4.87;100.00;95305.75;5047216;28;20048;-41
2022/11/22 00:07:14;;;;;;;2.75;1.50;;;5.60;99.90;;;4.90;100.00;95292.53;5046791;28;20819;-41
2022/11/22 00:09:40;;;;;;;7.07;2.03;;;5.70;99.90;;;4.93;100.00;95284.56;5046905;28;20025;-41
2022/11/22 00:12:05;;;;;;;5.20;1.80;;;5.70;99.90;;;4.80;100.00;95252.13;5054115;28;20025;-41
2022/11/22 00:14:31;;;;;;;5.25;1.70;;;5.70;99.90;;;4.95;100.00;95273.13;5049177;28;20067;-41
2022/11/22 00:16:57;;;;;;;3.92;1.80;;;5.70;99.90;;;4.98;100.00;95264.28;5048887;28;20032;-41
2022/11/22 00:19:22;;;;;;;2.67;1.60;;;5.70;99.90;;;4.98;100.00;95265.13;5049961;28;20036;-41
2022/11/22 00:21:48;;;;;;;4.95;1.90;;;5.70;99.90;;;4.92;100.00;95265.44;5046931;28;20100;-41
2022/11/22 00:24:14;;;;;;;2.60;1.30;;;5.70;99.90;;;4.92;100.00;95260.22;5050080;28;20120;-40
2022/11/22 00:26:40;;;;;;;4.85;1.70;;;5.70;99.90;;;4.85;100.00;95260.59;5045036;28;20040;-40
2022/11/22 00:29:06;;;;;;;3.60;1.60;;;5.60;99.90;;;4.81;100.00;95257.28;5046969;28;20187;-40
2022/11/22 00:31:31;;;;;;;6.22;2.00;;;5.60;99.90;;;4.76;100.00;95254.88;5046074;28;20408;-40
2022/11/22 00:33:57;;;;;;;3.65;1.50;;;5.60;99.90;;;4.84;100.00;95269.34;5046954;28;21749;-40
2022/11/22 00:36:23;;;;;;;2.85;1.42;;;5.60;99.90;;;4.85;100.00;95260.59;5047129;28;20051;-40
2022/11/22 00:38:49;;;;;;;4.35;1.50;;;5.60;99.90;;;4.87;100.00;95263.97;5042911;28;20036;-40
2022/11/22 00:41:15;;;;;;;2.83;1.73;;;5.60;99.90;;;4.90;100.00;95271.63;5041255;28;20040;-40
2022/11/22 00:43:40;;;;;;;3.60;1.63;;;5.60;99.90;;;4.91;100.00;95265.50;5043549;28;20090;-40
2022/11/22 00:46:07;;;;;;;6.28;1.88;;;5.70;99.90;;;4.94;100.00;95267.97;5044566;28;20028;-41
2022/11/22 00:48:33;;;;;;;5.15;1.73;;;5.70;99.90;;;4.92;100.00;95280.25;5046413;28;20056;-40
2022/11/22 00:50:59;;;;;;;4.13;1.83;;;5.70;99.90;;;4.90;100.00;95276.84;5040976;28;20036;-40
2022/11/22 00:53:24;;;;;;;4.65;1.90;;;5.70;99.90;;;4.95;100.00;95287.94;5051930;28;20073;-41
2022/11/22 00:55:50;;;;;;;4.47;1.50;;;5.70;99.90;;;4.91;100.00;95284.63;5040852;28;20663;-40
2022/11/22 00:58:16;;;;;;;3.15;1.67;;;5.70;99.90;;;4.98;100.00;95298.25;5042349;28;20449;-40
2022/11/22 01:00:42;;;;;;;4.05;1.70;;;5.70;99.90;;;4.96;100.00;95303.53;5045016;28;20040;-40
2022/11/22 01:03:11;;;;;;;3.38;1.85;;;5.80;99.90;;;4.98;100.00;95313.91;5047147;28;21302;-40
2022/11/22 01:05:38;;;;;;;4.43;1.60;;;5.70;99.90;;;5.00;100.00;95317.28;5045043;28;20033;-41
2022/11/22 01:08:04;;;;;;;4.07;1.80;;;5.80;99.90;;;5.02;100.00;95323.28;5050531;28;20024;-40
2022/11/22 01:10:29;;;;;;;4.40;1.90;;;5.80;99.90;;;5.04;100.00;95318.00;5037988;28;20033;-40
2022/11/22 01:12:57;;;;;;;4.28;1.63;;;5.80;99.90;;;5.03;100.00;95322.38;5043473;28;20024;-40
2022/11/22 01:15:23;;;;;;;3.13;1.60;;;5.80;99.90;;;5.05;100.00;95327.53;5048768;28;20025;-40
2022/11/22 01:17:49;;;;;;;3.15;1.63;;;5.80;99.90;;;5.06;100.00;95332.69;5048886;28;20036;-40
2022/11/22 01:20:14;;;;;;;4.35;1.55;;;5.80;99.90;;;5.06;100.00;95337.03;5049960;28;20039;-40
2022/11/22 01:22:40;;;;;;;3.28;1.33;;;5.80;99.90;;;5.08;100.00;95325.63;5046912;28;20428;-40
2022/11/22 01:25:07;;;;;;;3.92;1.60;;;5.80;99.90;;;5.10;100.00;95336.84;5042950;28;20123;-40
2022/11/22 01:27:33;;;;;;;3.38;1.63;;;5.90;99.90;;;5.10;100.00;95333.38;5047530;28;20032;-40
2022/11/22 01:29:58;;;;;;;5.40;1.60;;;5.90;99.90;;;5.03;100.00;95330.22;5040631;28;20096;-40
2022/11/22 01:32:24;;;;;;;6.57;1.63;;;5.80;99.90;;;5.07;100.00;95328.28;5041231;28;20040;-40
2022/11/22 01:34:50;;;;;;;2.53;1.35;;;5.80;99.90;;;5.11;100.00;95332.44;5043344;28;20075;-40
2022/11/22 01:37:15;;;;;;;6.45;1.70;;;5.80;99.90;;;5.13;100.00;95341.91;5047777;28;20028;-40
2022/11/22 01:39:41;;;;;;;2.45;1.52;;;5.90;99.90;;;5.10;100.00;95339.44;5040699;28;20123;-40
2022/11/22 01:42:10;;;;;;;5.65;2.10;;;5.90;99.90;;;5.11;100.00;95340.28;5044533;28;20028;-40
2022/11/22 01:44:39;;;;;;;5.32;1.60;;;5.80;99.90;;;5.11;100.00;95335.06;5047401;28;20047;-40
2022/11/22 01:47:12;;;;;;;3.75;2.05;;;5.90;99.90;;;5.13;100.00;95328.84;5043188;28;20354;-40
2022/11/22 01:49:51;;;;;;;2.70;1.48;;;5.90;99.90;;;5.13;100.00;95330.59;5024790;28;20032;-40
2022/11/22 01:52:20;;;;;;;5.18;1.50;;;5.90;99.90;;;4.99;100.00;95307.78;5021632;28;20294;-40
2022/11/22 01:55:01;;;;;;;4.47;1.10;;;5.90;99.90;;;5.18;100.00;95330.38;5043638;28;20321;-40
2022/11/22 01:57:32;;;;;;;2.60;1.25;;;5.90;99.90;;;5.20;100.00;95334.59;5040333;28;20086;-40
2022/11/22 02:00:12;;;;;;;2.70;1.40;;;5.90;99.90;;;5.22;100.00;95329.31;5039032;28;20552;-40
2022/11/22 02:02:38;;;;;;;2.75;1.60;;;6.00;99.90;;;5.22;100.00;95327.53;5036466;28;20025;-40
2022/11/22 02:05:16;;;;;;;3.83;1.45;;;5.90;99.90;;;5.25;100.00;95335.22;5022930;28;20089;-40
2022/11/22 02:07:51;;;;;;;3.28;1.60;;;6.00;99.90;;;5.27;100.00;95341.22;5046644;28;20538;-40
2022/11/22 02:10:19;;;;;;;3.25;1.70;;;6.00;99.90;;;5.27;100.00;95349.06;5022584;28;20399;-40
2022/11/22 02:12:45;;;;;;;2.08;1.30;;;6.00;99.90;;;5.29;100.00;95342.03;5018205;28;20037;-40
2022/11/22 02:15:11;;;;;;;3.55;1.50;;;6.00;99.90;;;5.29;100.00;95343.78;5000580;28;20183;-40
2022/11/22 02:17:37;;;;;;;3.25;1.60;;;6.00;99.90;;;5.30;100.00;95337.63;5033198;28;20115;-40
2022/11/22 02:20:03;;;;;;;4.00;1.45;;;6.10;99.90;;;5.34;100.00;95341.78;5033274;28;20039;-40
2022/11/22 02:22:39;;;;;;;5.22;1.30;;;6.10;99.90;;;5.29;100.00;95338.53;5040463;28;20032;-40
2022/11/22 02:25:14;;;;;;;2.90;1.48;;;6.10;99.90;;;5.35;100.00;95348.72;5026706;28;20307;-40
2022/11/22 02:27:41;;;;;;;1.98;1.20;;;6.10;99.90;;;5.34;100.00;95353.06;5029306;28;20033;-40
2022/11/22 02:30:07;;;;;;;4.00;1.35;;;6.00;99.90;;;5.34;100.00;95357.47;5037943;28;20090;-40
2022/11/22 02:32:33;;;;;;;1.75;1.30;;;6.10;99.90;;;5.34;100.00;95373.16;5040762;28;20029;-40
2022/11/22 02:34:59;;;;;;;4.75;1.00;;;6.00;99.90;;;5.33;100.00;95371.47;5042583;28;20043;-40
2022/11/22 02:37:28;;;;;;;2.20;1.00;;;6.00;99.90;;;5.32;100.00;95361.91;5042574;28;20419;-40
2022/11/22 02:40:09;;;;;;;1.70;1.02;;;6.10;99.90;;;5.26;100.00;95359.63;5026367;28;20032;-40
2022/11/22 02:42:35;;;;;;;3.10;1.50;;;6.00;99.90;;;5.25;100.00;95365.75;5036627;28;20607;-40
2022/11/22 02:45:01;;;;;;;3.03;1.20;;;6.00;99.90;;;5.24;100.00;95362.31;5018832;28;20127;-40
2022/11/22 02:47:26;;;;;;;3.63;1.40;;;6.00;99.90;;;5.19;100.00;95368.66;5043701;28;20037;-40
2022/11/22 02:49:53;;;;;;;2.75;1.40;;;5.90;99.90;;;5.13;100.00;95365.44;5048386;28;20037;-40
2022/11/22 02:52:19;;;;;;;1.48;1.00;;;5.90;99.90;;;5.09;100.00;95363.03;5039199;28;20229;-40
2022/11/22 02:54:45;;;;;;;3.42;1.20;;;5.80;99.90;;;5.01;100.00;95360.78;5042456;28;20569;-40
2022/11/22 02:57:12;;;;;;;2.15;1.30;;;5.70;99.90;;;4.91;100.00;95368.19;5042813;28;20112;-40
2022/11/22 02:59:37;;;;;;;3.58;1.13;;;5.60;99.90;;;4.82;100.00;95360.81;5035258;28;20378;-40
2022/11/22 03:02:03;;;;;;;4.80;1.08;;;5.60;99.90;;;4.73;100.00;95366.44;5034925;28;20055;-40
2022/11/22 03:04:29;;;;;;;2.97;1.10;;;5.40;99.90;;;4.64;100.00;95370.34;5043664;28;20051;-40
2022/11/22 03:06:57;;;;;;;4.38;1.50;;;5.40;99.90;;;4.59;100.00;95370.56;5041734;28;20060;-40
2022/11/22 03:09:25;;;;;;;2.17;1.10;;;5.30;99.90;;;4.38;100.00;95348.88;5047076;28;20020;-40
2022/11/22 03:11:52;;;;;;;3.20;1.42;;;5.30;99.90;;;4.49;100.00;95381.50;5043831;28;20401;-40
2022/11/22 03:14:19;;;;;;;2.10;1.13;;;5.20;99.90;;;4.40;100.00;95378.38;5042886;28;20252;-40
2022/11/22 03:16:46;;;;;;;3.38;1.38;;;5.20;99.90;;;4.35;100.00;95380.34;5047555;28;20729;-40
2022/11/22 03:19:12;;;;;;;2.15;1.30;;;5.10;99.90;;;4.25;100.00;95381.66;5050453;28;20112;-40
2022/11/22 03:21:40;;;;;;;2.53;1.30;;;5.00;99.90;;;4.20;100.00;95378.41;5047919;28;20036;-40
2022/11/22 03:24:07;;;;;;;2.03;1.23;;;5.00;99.90;;;4.17;100.00;95388.97;5030461;28;20028;-40
2022/11/22 03:26:34;;;;;;;1.85;1.23;;;4.90;99.90;;;4.11;100.00;95378.78;5047971;28;20037;-40
2022/11/22 03:29:00;;;;;;;2.03;1.10;;;4.90;99.90;;;4.12;100.00;95388.34;5043396;28;20021;-40
2022/11/22 03:31:37;;;;;;;3.08;1.35;;;4.90;99.90;;;4.13;100.00;95392.66;5046147;28;20031;-39
2022/11/22 03:34:03;;;;;;;2.20;1.33;;;4.90;99.90;;;4.13;100.00;95403.91;5003833;28;20125;-38
2022/11/22 03:36:28;;;;;;;3.22;1.25;;;4.90;99.90;;;4.01;100.00;95383.59;5016226;28;20212;-38
2022/11/22 03:38:54;;;;;;;2.50;1.20;;;4.90;99.90;;;4.13;100.00;95403.09;5013470;28;20029;-39
2022/11/22 03:41:20;;;;;;;1.80;1.13;;;4.90;99.90;;;4.12;100.00;95390.94;5019402;28;20564;-38
2022/11/22 03:43:45;;;;;;;3.10;1.27;;;5.00;99.90;;;4.18;100.00;95393.28;5031918;28;20131;-39
2022/11/22 03:46:16;;;;;;;2.28;1.10;;;5.00;99.90;;;4.21;100.00;95407.03;5032715;28;20064;-38
2022/11/22 03:48:42;;;;;;;2.22;1.10;;;5.00;99.90;;;4.20;100.00;95397.53;5033321;28;20022;-39
2022/11/22 03:51:08;;;;;;;3.47;1.20;;;5.00;99.90;;;4.19;100.00;95394.97;5036218;28;20036;-38
2022/11/22 03:53:33;;;;;;;5.35;1.40;;;5.00;99.90;;;4.21;100.00;95395.75;5034776;28;20115;-39
2022/11/22 03:56:00;;;;;;;2.72;1.35;;;5.00;99.90;;;4.18;100.00;95388.03;5038486;28;20039;-39
2022/11/22 03:58:25;;;;;;;3.30;1.30;;;5.00;99.90;;;4.20;100.00;95394.06;5031465;28;20033;-39
2022/11/22 04:00:51;;;;;;;1.80;1.17;;;5.00;99.90;;;4.19;100.00;95389.75;5029146;28;20383;-38
2022/11/22 04:03:17;;;;;;;2.10;1.13;;;5.00;99.90;;;4.18;100.00;95388.03;5034735;28;20467;-38
2022/11/22 04:05:44;;;;;;;2.50;1.17;;;5.00;99.90;;;4.16;100.00;95389.88;5030840;28;20752;-38
2022/11/22 04:08:10;;;;;;;4.45;1.13;;;5.00;99.90;;;4.16;100.00;95398.56;5030539;28;20028;-38
2022/11/22 04:10:36;;;;;;;3.00;1.42;;;4.90;99.90;;;4.13;100.00;95403.91;5017719;28;20127;-39
2022/11/22 04:13:01;;;;;;;3.00;1.13;;;4.90;99.90;;;4.14;100.00;95410.81;5036113;28;20083;-39
2022/11/22 04:15:27;;;;;;;3.10;1.33;;;4.90;99.90;;;4.14;100.00;95408.22;5033809;28;20124;-38
2022/11/22 04:17:53;;;;;;;1.80;1.08;;;4.90;99.90;;;4.14;100.00;95408.22;5031107;28;20374;-38
2022/11/22 04:23:16;;;;;;;3.35;1.10;;;4.90;99.90;;;4.12;100.00;95410.03;5044996;28;20039;-39
2022/11/22 04:25:45;;;;;;;3.58;1.00;;;4.90;99.90;;;4.10;100.00;95413.63;5032764;28;20029;-38
2022/11/22 04:28:13;;;;;;;6.07;1.23;;;4.80;99.90;;;4.07;100.00;95411.16;5037620;28;20020;-39
2022/11/22 04:33:24;;;;;;;2.95;1.23;;;4.80;99.90;;;3.96;100.00;95399.41;5032895;28;20788;-39
2022/11/22 04:35:50;;;;;;;3.85;1.17;;;4.80;99.90;;;3.82;100.00;95386.13;5025086;28;20037;-39
2022/11/22 04:38:16;;;;;;;1.92;1.02;;;4.80;99.90;;;3.95;100.00;95409.94;5031779;28;20033;-39
2022/11/22 04:40:43;;;;;;;4.28;1.45;;;4.70;99.90;;;3.89;100.00;95408.41;5028851;28;20694;-39
2022/11/22 04:46:06;;;;;;;3.05;1.10;;;4.60;99.90;;;3.83;100.00;95409.53;5027913;28;20055;-39
2022/11/22 04:48:32;;;;;;;5.88;1.30;;;4.60;99.90;;;3.79;100.00;95417.56;5031816;28;20480;-38
2022/11/22 04:53:43;;;;;;;3.20;1.40;;;4.60;99.90;;;3.75;100.00;95402.94;5032917;28;20396;-38
2022/11/22 04:56:09;;;;;;;2.97;1.00;;;4.50;99.90;;;3.71;100.00;95396.16;5033883;28;20040;-38
2022/11/22 04:58:35;;;;;;;2.88;1.00;;;4.50;99.90;;;3.68;100.00;95401.50;5025117;28;20452;-38
2022/11/22 05:01:00;;;;;;;3.53;1.00;;;4.40;99.90;;;3.64;100.00;95400.78;5020865;28;20039;-39
2022/11/22 05:03:26;;;;;;;4.30;1.30;;;4.40;99.90;;;3.53;100.00;95382.13;5030614;28;20037;-38
2022/11/22 05:05:52;;;;;;;3.53;0.90;;;4.30;99.90;;;3.54;100.00;95394.28;5024216;28;20525;-38
2022/11/22 05:08:18;;;;;;;2.55;0.95;;;4.30;99.90;;;3.50;100.00;95403.97;5027059;28;20024;-39
2022/11/22 05:10:55;;;;;;;4.00;1.23;;;4.20;99.90;;;3.47;100.00;95401.47;5023277;28;20021;-38
2022/11/22 05:13:27;;;;;;;5.88;1.10;;;4.30;99.90;;;3.46;100.00;95412.81;5029848;28;20024;-38
2022/11/22 05:15:53;;;;;;;4.63;1.20;;;4.30;99.90;;;3.44;100.00;95410.25;5021848;28;20082;-38
2022/11/22 05:18:20;;;;;;;2.05;0.93;;;4.30;99.90;;;3.44;100.00;95415.47;5026561;28;20033;-38
2022/11/22 05:20:46;;;;;;;4.25;0.98;;;4.30;99.90;;;3.46;100.00;95436.25;5022596;28;20750;-38
2022/11/22 05:25:57;;;;;;;3.00;1.13;;;4.30;99.90;;;3.53;100.00;95450.72;5032717;28;20518;-38
2022/11/22 05:28:23;;;;;;;5.00;0.82;;;4.40;99.90;;;3.60;100.00;95440.91;5030132;28;20090;-38
2022/11/22 05:30:48;;;;;;;3.40;1.00;;;4.40;99.90;;;3.70;100.00;95444.00;5018219;28;20029;-37
2022/11/22 05:33:14;;;;;;;3.65;0.95;;;4.50;99.90;;;3.76;100.00;95435.94;5016210;28;20479;-39
2022/11/22 05:35:40;;;;;;;1.77;0.90;;;4.50;99.90;;;3.82;100.00;95439.13;5023990;28;20041;-39
2022/11/22 05:38:05;;;;;;;4.68;0.90;;;4.60;99.90;;;3.89;100.00;95437.09;5029288;28;20032;-39
2022/11/22 05:40:31;;;;;;;7.07;1.27;;;4.70;99.90;;;3.94;100.00;95435.16;5030886;28;20029;-39
2022/11/22 05:42:58;;;;;;;3.42;1.30;;;4.70;99.90;;;3.85;100.00;95419.91;5030645;28;20788;-39
2022/11/22 05:45:24;;;;;;;4.72;1.10;;;4.80;99.90;;;4.10;100.00;95447.56;5026056;28;20784;-39
2022/11/22 05:47:49;;;;;;;2.70;1.20;;;4.80;99.90;;;4.14;100.00;95449.09;5026894;28;20034;-39
2022/11/22 05:50:15;;;;;;;5.63;1.08;;;4.90;99.90;;;4.21;100.00;95442.72;5023575;28;20140;-39
2022/11/22 05:52:41;;;;;;;2.08;0.88;;;5.00;99.90;;;4.27;100.00;95452.91;5012195;28;20116;-39
2022/11/22 05:55:07;;;;;;;3.95;1.00;;;5.00;99.90;;;4.29;100.00;95443.25;5035208;28;20455;-39
2022/11/22 05:57:32;;;;;;;4.15;1.40;;;5.10;99.90;;;4.35;100.00;95445.56;5027841;28;20040;-39
2022/11/22 05:59:58;;;;;;;4.93;1.00;;;5.10;99.90;;;4.35;100.00;95442.13;5029840;28;20047;-39
2022/11/22 06:02:24;;;;;;;4.05;1.27;;;5.10;99.90;;;4.33;100.00;95441.34;5031219;28;20253;-39
2022/11/22 06:04:50;;;;;;;3.92;1.50;;;5.10;99.90;;;4.30;100.00;95457.13;5032271;28;20515;-39
2022/11/22 06:07:16;;;;;;;5.70;1.50;;;5.10;99.90;;;4.26;100.00;95455.56;5026874;28;20048;-39
2022/11/22 06:09:41;;;;;;;3.38;1.00;;;5.00;99.90;;;4.07;100.00;95438.06;5030786;28;20123;-39
2022/11/22 06:12:07;;;;;;;3.90;1.10;;;5.00;99.90;;;4.21;100.00;95464.41;5019462;28;20409;-39
2022/11/22 06:14:33;;;;;;;4.97;1.10;;;5.00;99.90;;;4.23;100.00;95476.56;5040149;28;20405;-39
2022/11/22 06:16:59;;;;;;;5.60;1.27;;;5.00;99.90;;;4.23;100.00;95479.19;5024073;28;20080;-38
2022/11/22 06:19:24;;;;;;;4.20;1.30;;;5.00;99.90;;;4.21;100.00;95476.63;5026434;28;20036;-39
2022/11/22 06:21:50;;;;;;;4.38;1.38;;;5.00;99.90;;;4.22;100.00;95480.94;5041243;28;20104;-38
2022/11/22 06:24:16;;;;;;;5.95;1.67;;;5.00;99.90;;;4.21;100.00;95474.84;5030651;28;20409;-39
2022/11/22 06:26:41;;;;;;;6.88;1.48;;;5.00;99.90;;;4.21;100.00;95477.47;5039079;28;20036;-39
2022/11/22 06:29:07;;;;;;;8.00;1.52;;;5.00;99.90;;;4.20;100.00;95483.63;5017211;28;20029;-39
2022/11/22 06:31:33;;;;;;;6.47;1.40;;;4.90;99.90;;;4.18;100.00;95484.56;5033971;28;20032;-39
2022/11/22 06:33:59;;;;;;;7.38;1.30;;;4.90;99.90;;;4.20;100.00;95488.00;5032793;28;20032;-39
2022/11/22 06:36:32;;;;;;;5.18;1.40;;;4.90;99.90;;;4.20;100.00;95495.81;5038386;28;20040;-39
2022/11/22 06:38:58;;;;;;;5.80;1.25;;;4.90;99.90;;;4.20;100.00;95498.44;5027545;28;20352;-39
2022/11/22 06:41:27;;;;;;;5.28;1.02;;;4.90;99.90;;;4.07;100.00;95477.19;5036083;28;20799;-39
2022/11/22 06:43:57;;;;;;;3.95;1.23;;;4.90;99.90;;;4.18;100.00;95497.63;5017666;28;20396;-38
2022/11/22 06:46:26;;;;;;;1.75;1.00;;;5.00;99.90;;;4.21;100.00;95511.38;5033543;28;20039;-39
2022/11/22 06:48:52;;;;;;;4.20;1.30;;;4.90;99.90;;;4.22;100.00;95522.69;5044025;28;20029;-39
2022/11/22 06:51:24;;;;;;;3.53;1.23;;;5.00;99.90;;;4.22;100.00;95522.69;5038572;28;20033;-39
2022/11/22 06:53:50;;;;;;;;;;;5.00;99.90;;;4.23;100.00;95533.97;5040662;28;20040;-39
2022/11/22 06:56:24;;;;;;;5.03;1.27;;;4.90;99.90;;;4.20;100.00;95543.63;5028164;28;19974;-40
2022/11/22 06:58:50;;;;;;;4.10;1.15;;;4.90;99.90;;;4.20;100.00;95558.44;5033855;28;20396;-39
2022/11/22 07:01:20;;;;;;;6.97;1.20;;;5.00;99.90;;;4.19;100.00;95547.13;5037022;28;20024;-39
2022/11/22 07:03:47;;;;;;;4.05;1.20;;;5.00;99.90;;;4.20;100.00;95554.06;5023481;28;20124;-39
2022/11/22 07:06:15;;;;;;;4.80;1.23;;;5.00;99.90;;;4.21;100.00;95557.50;5036842;28;20403;-39
2022/11/22 07:08:42;;;;;;;2.65;0.70;;;4.90;99.90;;;4.21;100.00;95566.19;5026288;28;20037;-39
2022/11/22 07:11:18;;;;;;;1.75;1.02;;;5.00;99.90;;;4.24;100.00;95569.59;5028522;28;20056;-39
2022/11/22 07:13:45;;;;;;;5.22;1.30;;;5.00;99.90;;;4.27;100.00;95574.66;5031861;28;20033;-39
2022/11/22 07:16:13;;;;;;;4.57;1.13;;;5.00;99.90;;;4.27;100.00;95570.31;5025962;28;20139;-39
2022/11/22 07:18:40;;;;;;;4.35;1.42;;;5.00;99.90;;;4.29;100.00;95578.94;5033839;28;20501;-39
2022/11/22 07:21:09;;;;;;;3.17;1.10;;;5.10;99.90;;;4.30;100.00;95564.94;5043015;28;20059;-39
2022/11/22 07:23:35;;;;;;;5.45;1.40;;;5.10;99.90;;;4.37;100.00;95579.44;5022913;28;20124;-39
2022/11/22 07:26:00;;;;;;;8.00;1.50;;;5.10;99.90;;;4.41;100.00;95574.94;5042371;28;20037;-39
2022/11/22 07:28:26;;;;;;;7.35;1.60;;;5.10;99.90;;;4.39;100.00;95572.41;5046762;28;20024;-39
2022/11/22 07:31:00;;;;;;;5.30;1.38;;;5.20;99.90;;;4.47;100.00;95587.75;5031100;28;20421;-39
2022/11/22 07:33:26;;;;;;;7.22;1.85;;;5.20;99.90;;;4.48;100.00;95596.44;5035502;28;20357;-39
2022/11/22 07:35:53;;;;;;;6.38;1.50;;;5.20;99.90;;;4.49;100.00;95591.16;5011128;28;20033;-39
2022/11/22 07:38:18;;;;;;;5.57;1.80;;;5.30;99.90;;;4.53;100.00;95591.88;5026464;28;20556;-40
2022/11/22 07:40:44;;;;;;;5.20;1.70;;;5.30;99.90;;;4.61;100.00;95596.75;5030897;28;20046;-39
2022/11/22 07:43:10;;;;;;;3.13;1.50;;;5.30;99.90;;;4.63;100.00;95603.63;5028196;28;21751;-39
2022/11/22 07:45:35;;;;;;;3.63;1.77;;;5.40;99.90;;;4.68;100.00;95606.88;5033820;28;20713;-39
2022/11/22 07:48:01;;;;;;;6.47;1.70;;;5.40;99.90;;;4.71;100.00;95614.56;5030555;28;20037;-39
2022/11/22 07:50:27;;;;;;;5.53;1.70;;;5.50;99.90;;;4.75;100.00;95623.13;5019705;28;20131;-39
2022/11/22 07:52:57;;;;;;;3.58;1.42;;;5.50;99.90;;;4.82;100.00;95621.13;5029423;28;20036;-39
2022/11/22 07:55:25;;;;;;;5.28;1.58;;;5.50;99.90;;;4.86;100.00;95613.06;5038068;28;20033;-39
2022/11/22 07:57:57;;;;;;;4.63;1.35;;;5.60;99.90;;;4.92;100.00;95614.59;5041456;28;20131;-39
2022/11/22 08:00:23;;;;;;;8.77;1.90;;;5.60;99.90;;;4.96;100.00;95610.91;5037099;28;20118;-39
2022/11/22 08:02:48;;;;;;;4.20;1.10;;;5.70;99.90;;;5.00;100.00;95615.09;5028896;28;20028;-39
2022/11/22 08:05:15;;;;;;;4.57;1.85;;;5.70;99.90;;;5.05;100.00;95612.28;5032354;28;20543;-39
2022/11/22 08:07:52;;;;;;;9.18;1.77;;;5.80;99.90;;;5.06;100.00;95606.13;5045444;28;20204;-39
2022/11/22 08:10:18;;;;;;;5.20;1.80;;;5.80;99.90;;;5.11;100.00;95614.63;5038824;28;20025;-39
2022/11/22 08:12:44;;;;;;;7.25;1.60;;;5.90;99.90;;;5.15;100.00;95619.66;5042477;28;20746;-39
2022/11/22 08:15:13;;;;;;;7.28;1.90;;;5.90;99.90;;;5.18;100.00;95612.59;5030597;28;20075;-39
2022/11/22 08:17:39;;;;;;;7.45;1.95;;;6.00;99.90;;;5.22;100.00;95614.16;5035477;28;20051;-39
2022/11/22 08:20:07;;;;;;;7.30;1.80;;;6.00;99.90;;;5.26;100.00;95619.19;5041020;28;20445;-39
2022/11/22 08:22:37;;;;;;;6.97;1.73;;;6.00;99.90;;;5.32;100.00;95615.44;5041609;28;20033;-38
2022/11/22 08:25:04;;;;;;;5.75;1.77;;;6.00;99.90;;;5.35;100.00;95616.16;5038096;28;20423;-39
2022/11/22 08:27:29;;;;;;;6.15;1.45;;;6.10;99.90;;;5.39;100.00;95616.88;5042941;28;20040;-39
2022/11/22 08:29:55;;;;;;;7.82;1.67;;;6.10;99.90;;;5.40;100.00;95625.56;5033811;28;20033;-39
2022/11/22 08:32:21;;;;;;;8.02;2.13;;;6.10;99.90;;;5.40;100.00;95620.31;5032205;28;20812;-40
2022/11/22 08:34:46;;;;;;;8.25;1.98;;;6.20;99.90;;;5.47;100.00;95611.28;5043524;28;20507;-40
2022/11/22 08:37:12;;;;;;;7.18;2.08;;;6.20;99.90;;;5.48;100.00;95605.16;5038326;28;20044;-39
2022/11/22 08:39:38;;;;;;;9.23;1.85;;;6.20;99.90;;;5.63;100.00;95624.50;5043086;28;20524;-39
2022/11/22 08:42:05;;;;;;;2.72;1.40;;;6.30;99.90;;;5.68;100.00;95612.09;5045136;28;20301;-39
2022/11/22 08:44:31;;;;;;;5.65;1.42;;;6.40;99.90;;;5.78;100.00;95623.81;5042212;28;20111;-39
2022/11/22 08:46:57;;;;;;;4.65;1.60;;;6.50;99.90;;;5.87;100.00;95615.53;5040840;28;20558;-39
2022/11/22 08:49:22;;;;;;;6.00;1.83;;;6.50;99.90;;;5.97;100.00;95604.66;5042667;28;20033;-40
2022/11/22 08:51:48;;;;;;;5.47;1.80;;;6.70;99.90;;;6.03;100.00;95602.63;5042304;28;20200;-39
2022/11/22 08:54:14;;;;;;;5.78;1.67;;;6.70;99.90;;;6.14;100.00;95604.72;5043350;28;20033;-40
2022/11/22 08:56:40;;;;;;;5.93;1.80;;;6.80;99.90;;;6.25;100.00;95612.06;5033133;28;20745;-39
2022/11/22 08:59:06;;;;;;;8.07;2.42;;;6.90;99.90;;;6.28;100.00;95593.56;5016201;28;20670;-39
2022/11/22 09:01:32;;;;;;;5.78;2.00;;;7.00;99.90;;;6.37;100.00;95594.88;5032127;28;20052;-40
2022/11/22 09:03:58;;;;;;;7.82;2.15;;;7.10;99.90;;;6.43;100.00;95594.59;5027145;28;20633;-39
2022/11/22 09:06:24;;;;;;;5.43;1.60;;;7.10;99.90;;;6.50;100.00;95591.59;5026217;28;20409;-39
2022/11/22 09:08:50;;;;;;;4.85;1.70;;;7.20;99.90;;;6.58;100.00;95588.59;5041422;28;20017;-40
2022/11/22 09:11:18;;;;;;;4.38;1.48;;;7.30;99.90;;;6.66;100.00;95580.38;5049840;28;20332;-40
2022/11/22 09:13:44;;;;;;;4.13;1.35;;;7.30;99.90;;;6.71;100.00;95582.72;5040919;28;20670;-39
2022/11/22 09:16:14;;;;;;;4.03;1.50;;;7.40;99.90;;;6.79;100.00;95580.59;5037803;28;20231;-40
2022/11/22 09:18:41;;;;;;;6.47;1.70;;;7.40;99.90;;;6.83;100.00;95580.34;5047371;28;20025;-40
2022/11/22 09:21:10;;;;;;;5.00;1.65;;;7.50;99.90;;;6.87;100.00;95579.28;5037101;28;20044;-40
2022/11/22 09:23:36;;;;;;;8.20;2.42;;;7.60;99.90;;;6.90;100.00;95587.91;5035894;28;20397;-40
2022/11/22 09:26:08;;;;;;;4.68;2.03;;;7.60;99.90;;;6.96;100.00;95588.41;5031414;28;20029;-41
2022/11/22 09:28:34;;;;;;;6.07;1.60;;;7.70;99.90;;;7.01;100.00;95591.63;5036270;28;20024;-41
2022/11/22 09:31:03;;;;;;;6.00;1.92;;;7.70;99.90;;;7.14;100.00;95598.88;5032697;28;20447;-40
2022/11/22 09:33:30;;;;;;;5.85;2.10;;;7.80;99.90;;;7.20;100.00;95609.06;5072935;22;20052;-44
2022/11/22 09:36:05;;;;;;;6.07;1.98;;;7.90;99.90;;;7.30;100.00;95617.28;5067229;28;20073;-45
2022/11/22 09:38:31;;;;;;;6.35;2.10;;;7.90;99.90;;;7.38;100.00;95620.34;5070941;28;20037;-44
2022/11/22 09:40:58;;;;;;;7.53;2.00;;;8.00;99.90;;;7.41;100.00;95618.41;5069126;28;20036;-44
2022/11/22 09:43:51;;;;;;;4.53;1.80;;;8.10;99.90;;;7.53;100.00;95639.66;5070169;28;20129;-43
2022/11/22 09:46:39;;;;;;;5.25;1.88;;;8.20;99.90;;;7.63;100.00;95635.63;5068380;28;20108;-44
2022/11/22 09:49:55;;;;;;;6.18;1.70;;;8.30;99.90;;;7.68;100.00;95633.63;5051377;28;20028;-44
2022/11/22 09:52:48;;;;;;;5.75;1.80;;;8.30;99.90;;;7.76;100.00;95639.28;5069459;28;20603;-43
2022/11/22 09:55:46;;;;;;;8.18;1.60;;;8.40;99.90;;;7.81;100.00;95642.50;5050249;28;20507;-45
2022/11/22 09:58:50;;;;;;;8.10;2.17;;;8.50;99.90;;;7.80;100.00;95648.66;5055197;28;20070;-45
2022/11/22 10:01:39;;;;;;;7.43;2.15;;;8.50;99.90;;;7.79;100.00;95646.16;5050815;28;20028;-44
2022/11/22 10:04:16;;;;;;;6.57;1.90;;;8.50;99.90;;;7.78;100.00;95658.41;5053648;28;20040;-44
2022/11/22 10:06:45;;;;;;;4.82;1.70;;;8.50;99.90;;;7.75;100.00;95658.59;5052318;28;20319;-45
2022/11/22 10:09:47;;;;;;;6.50;1.88;;;8.40;99.90;;;7.77;100.00;95659.34;5052628;28;20040;-45
2022/11/22 10:12:26;;;;;;;5.13;1.50;;;8.40;99.90;;;7.78;100.00;95661.03;5046950;28;20460;-43
2022/11/22 10:15:01;;;;;;;7.75;1.65;;;8.40;99.90;;;7.80;100.00;95664.41;5067814;28;20027;-43
2022/11/22 10:17:52;;;;;;;9.88;2.55;;;8.50;99.90;;;7.76;100.00;95670.78;5066827;28;20036;-44
2022/11/22 10:20:22;;;;;;;5.85;1.65;;;8.50;99.90;;;7.78;100.00;95670.69;5055317;28;20024;-43
2022/11/22 10:22:48;;;;;;;6.65;1.90;;;8.50;99.90;;;7.79;100.00;95673.25;5067638;28;20666;-45
2022/11/22 10:25:39;;;;;;;7.63;1.88;;;8.50;99.90;;;7.82;100.00;95670.47;5075152;28;20032;-46
2022/11/22 10:28:47;;;;;;;4.80;1.58;;;8.50;99.90;;;7.81;100.00;95671.38;5074547;28;20036;-44
2022/11/22 10:31:25;;;;;;;6.32;1.92;;;8.50;99.90;;;7.86;100.00;95665.03;5074146;28;20059;-44
2022/11/22 10:34:06;;;;;;;5.70;1.67;;;8.60;99.90;;;7.87;100.00;95669.34;5054573;28;20506;-44
2022/11/22 10:37:04;;;;;;;6.15;1.40;;;8.50;99.90;;;7.94;100.00;95670.72;5070300;28;20481;-43
2022/11/22 10:39:54;;;;;;;4.05;1.30;;;8.60;99.90;;;7.95;100.00;95675.88;5049936;28;20028;-44
2022/11/22 10:42:43;;;;;;;3.38;1.20;;;8.70;99.90;;;8.02;100.00;95674.63;5078626;28;20077;-44
2022/11/22 10:45:40;;;;;;;6.95;1.65;;;8.70;99.90;;;7.95;100.00;95670.63;5076879;28;20065;-47
2022/11/22 10:48:30;;;;;;;7.60;1.70;;;8.70;99.90;;;8.03;100.00;95678.09;5063616;28;20506;-44